Capitol Logistics 12




PANC
Ted Stevens Anchorage International Airport
Anchorage, Alaska
VHHH
Chek Lap Kok International
Hong Kong,

Activity Log

Date Flight Route Aircraft Duration
09/27/2021 CPX12 NODLE R220 NANZA R220 NANAC R220 IXE Y88 NAKTU Y12 KEC Y24 KOSHI A1 BULAN A1 ELATO V522 ABBEY B744 10h 01m
09/25/2021 CPX12 NODLE R220 NANZA R220 NANAC R220 IXE Y88 NAKTU Y12 KEC Y24 KOSHI A1 BULAN A1 ELATO V522 ABBEY B744 10h 17m
09/08/2021 CPX12 NODLE R220 NANZA R220 NANAC R220 IXE Y88 NAKTU Y12 KEC Y24 KOSHI A1 BULAN A1 ELATO V522 ABBEY B744 10h 58m
04/29/2021 CPX12 NODLE R220 NANZA R220 NANAC R220 IXE Y88 NAKTU Y12 KEC Y24 KOSHI A1 BULAN A1 ELATO V522 ABBEY B744 11h 15m
08/26/2020 CPX12 NODLE R220 NANZA R220 NANAC R220 IXE Y88 NAKTU Y12 KEC Y24 KOSHI A1 BULAN A1 ELATO V522 ABBEY B744 10h 00m
10/19/2019 CPX12 NODLE R220 NANZA R220 NANAC R220 IXE Y88 NAKTU Y12 KEC Y24 KOSHI A1 BULAN A1 ELATO V522 ABBEY B744 11h 19m
09/06/2019 CPX12 NODLE R220 NANZA R220 NANAC R220 IXE Y88 NAKTU Y12 KEC Y24 KOSHI A1 BULAN A1 ELATO V522 ABBEY B744 9h 25m
09/04/2019 CPX12 NODLE R220 NANZA R220 NANAC R220 IXE Y88 NAKTU Y12 KEC Y24 KOSHI A1 BULAN A1 ELATO V522 ABBEY B744 10h 44m
06/30/2019 CPX12 NODLE R220 NANZA R220 NANAC R220 IXE Y88 NAKTU Y12 KEC Y24 KOSHI A1 BULAN A1 ELATO V522 ABBEY B744 11h 00m
06/08/2019 CPX12 NODLE R220 NANZA R220 NANAC R220 IXE Y88 NAKTU Y12 KEC Y24 KOSHI A1 BULAN A1 ELATO V522 ABBEY B744 10h 52m
06/07/2019 CPX12 NODLE R220 NANZA R220 NANAC R220 IXE Y88 NAKTU Y12 KEC Y24 KOSHI A1 BULAN A1 ELATO V522 ABBEY B744 10h 39m
02/05/2019 CPX12 TURNA7 TED J501 BET NEONN G349 MARCC G583 MVE Y116 LUBEK V8 AWE V7 ASIBE Y116 CHE Y12 TAPPI Z16 MIHOU Y14 DGC V28 FUE OTR30 MIKES SALMI L1 KADLO A1 MAGOG V512 ABBEY ABEY3A MD11 10h 53m

Route Details

Aircraft Information
Group: Large Widebodies
Types: B744,MD11
Route Data
Demand: D
Distance: 4413nm
Duration: 11h 15m
Recm'd Route: NODLE R220 NANZA R220 NANAC R220 IXE Y88 NAKTU Y12 KEC Y24 KOSHI A1 BULAN A1 ELATO V522 ABBEY
Origin Wx: PANC 252253Z 17004KT 5SM R07R/6000VP6000FT -SN BR BKN022 BKN036 M01/M03 A3007 RMK AO2 SLP184 P0000 T10061033
Dest. Wx: VHHH 252300Z 10008KT 9000 FEW009 SCT025 18/15 Q1017 NOSIG
Notes:

Financial History
Total Freight: 677,091lbs
Average Load: 56,424lbs/flt
Fuel Used: 2,236,294lbs
Avg. Fuel Used: 186,358lbs/flt
Fuel Expense: $2,031,127
Avg. Fuel Expense: $169,261
Avg. Fuel Cost: $0.95/lbs
Total Gross Income: $1,403,855
Pilot Pay: $2,818
Total Expenses: $169,263
Total Revenue: $-826,887
Average Revenue: $116,987.90